Time;durP1;ratioP1;P1;durP2;ratioP2;P2;SDS_P1;SDS_P2;PMS_P1;PMS_P2;Temp;Humidity;BMP_temperature;BMP_pressure;BME280_temperature;BME280_humidity;BME280_pressure;Samples;Min_cycle;Max_cycle;Signal;HPM_P1;HPM_P2
2023/06/03 00:02:04;;;;;;;13.53;6.63;;;;;;;-145.69;100.00;52155.25;5071438;28;20194;-86
2023/06/03 00:04:30;;;;;;;10.77;6.53;;;;;;;-145.69;100.00;52115.66;5075787;28;20290;-84
2023/06/03 00:06:57;;;;;;;13.03;7.07;;;;;;;-145.69;100.00;52127.53;5076724;28;20202;-85
2023/06/03 00:09:24;;;;;;;13.47;7.03;;;;;;;-145.69;100.00;52147.34;5076492;28;20202;-84
2023/06/03 00:11:52;;;;;;;12.43;6.60;;;;;;;-145.69;100.00;52131.50;5076914;28;20203;-85
2023/06/03 00:14:19;;;;;;;12.23;6.73;;;;;;;-145.69;100.00;52131.50;5076488;28;20684;-85
2023/06/03 00:16:46;;;;;;;19.77;6.43;;;;;;;-145.69;100.00;52129.50;5076477;28;20562;-84
2023/06/03 00:19:14;;;;;;;10.60;6.63;;;;;;;-145.69;100.00;52119.63;5076245;28;20294;-85
2023/06/03 00:21:40;;;;;;;17.40;7.33;;;;;;;-145.69;100.00;52161.19;5070595;28;20234;-85
2023/06/03 00:24:07;;;;;;;13.50;6.73;;;;;;;-145.69;100.00;52149.31;5056188;28;20656;-85
2023/06/03 00:26:34;;;;;;;12.23;6.47;;;;;;;-145.69;100.00;52155.25;5056531;28;20199;-85
2023/06/03 00:29:01;;;;;;;13.40;7.83;;;;;;;-145.69;100.00;52103.78;5056631;28;20203;-85
2023/06/03 00:31:28;;;;;;;13.57;7.53;;;;;;;-145.69;100.00;52175.06;5054667;28;20199;-85
2023/06/03 00:33:54;;;;;;;13.53;6.83;;;;;;;-145.69;100.00;52121.59;5055570;28;20249;-86
2023/06/03 00:36:21;;;;;;;11.50;6.87;;;;;;;-145.69;100.00;52149.31;5055051;28;20234;-86
2023/06/03 00:38:47;;;;;;;14.47;7.10;;;;;;;-145.69;100.00;52135.47;5055320;28;20196;-86
2023/06/03 00:41:14;;;;;;;17.17;6.80;;;;;;;-145.69;100.00;52149.31;5056182;28;20605;-86
2023/06/03 00:43:40;;;;;;;14.80;7.23;;;;;;;-145.69;100.00;52159.22;5055715;28;20207;-86
2023/06/03 00:46:10;;;;;;;13.03;6.50;;;;;;;-145.69;100.00;52131.50;5055463;28;20199;-85
2023/06/03 00:48:37;;;;;;;13.73;7.63;;;;;;;-145.69;100.00;52149.31;5069851;28;20226;-85
2023/06/03 00:51:04;;;;;;;11.83;7.27;;;;;;;-145.69;100.00;52171.09;5074948;28;20238;-84
2023/06/03 00:53:30;;;;;;;14.97;7.60;;;;;;;-145.69;100.00;52163.19;5075642;28;20576;-86
2023/06/03 00:55:57;;;;;;;15.03;7.13;;;;;;;-145.69;100.00;52167.13;5075185;28;20230;-86
2023/06/03 00:58:23;;;;;;;12.37;7.47;;;;;;;-145.69;100.00;52135.47;5071222;28;20199;-86
2023/06/03 01:00:50;;;;;;;18.07;7.97;;;;;;;-145.69;100.00;52133.47;5074963;28;20206;-86
2023/06/03 01:03:19;;;;;;;15.48;7.88;;;;;;;-145.69;100.00;52107.72;5074173;28;20449;-85
2023/06/03 01:05:50;;;;;;;13.70;7.43;;;;;;;-145.69;100.00;52190.91;5074099;28;20228;-84
2023/06/03 01:08:24;;;;;;;14.43;7.67;;;;;;;-145.69;100.00;52115.66;5054907;28;20245;-84
2023/06/03 01:11:00;;;;;;;19.73;7.90;;;;;;;-145.69;100.00;52173.09;5035948;28;20216;-85
2023/06/03 01:13:32;;;;;;;11.63;6.73;;;;;;;-145.69;100.00;52147.34;5035333;28;20204;-84
2023/06/03 01:16:04;;;;;;;20.13;8.10;;;;;;;-145.69;100.00;52167.13;5035783;28;20223;-85
2023/06/03 01:18:34;;;;;;;14.13;6.90;;;;;;;-145.69;100.00;52167.13;5035835;28;20682;-85
2023/06/03 01:21:02;;;;;;;11.10;6.60;;;;;;;-145.69;100.00;52147.34;5034566;28;20322;-85
2023/06/03 01:23:33;;;;;;;15.23;7.10;;;;;;;-145.69;100.00;52139.41;5035437;28;20207;-85
2023/06/03 01:26:01;;;;;;;16.97;7.27;;;;;;;-145.69;100.00;52135.47;5035237;28;20207;-85
2023/06/03 01:28:28;;;;;;;14.43;7.70;;;;;;;-145.69;100.00;52171.09;5034827;28;20204;-86
2023/06/03 01:30:55;;;;;;;12.90;7.10;;;;;;;-145.69;100.00;52139.41;5034381;28;20227;-85
2023/06/03 01:33:24;;;;;;;11.00;6.87;;;;;;;-145.69;100.00;52167.13;5034692;28;20254;-85
2023/06/03 01:35:54;;;;;;;17.67;7.40;;;;;;;-145.69;100.00;52143.38;5034010;28;20228;-85
2023/06/03 01:38:22;;;;;;;12.90;7.80;;;;;;;-145.69;100.00;52151.28;5034125;28;20215;-85
2023/06/03 01:40:51;;;;;;;13.27;7.63;;;;;;;-145.69;100.00;52171.09;5034119;28;20200;-85
2023/06/03 01:43:18;;;;;;;14.13;7.20;;;;;;;-145.69;100.00;52165.16;5033886;28;20208;-85
2023/06/03 01:45:45;;;;;;;14.23;7.97;;;;;;;-145.69;100.00;52127.53;5034276;28;20208;-86
2023/06/03 01:48:12;;;;;;;16.47;6.93;;;;;;;-145.69;100.00;52155.25;5033254;28;20203;-85
2023/06/03 01:50:41;;;;;;;18.33;7.73;;;;;;;-145.69;100.00;52143.38;5034533;28;20241;-85
2023/06/03 01:53:08;;;;;;;15.00;7.20;;;;;;;-145.69;100.00;52127.53;5034746;28;20250;-86
2023/06/03 01:55:34;;;;;;;12.10;7.50;;;;;;;-145.69;100.00;52143.38;5061583;28;20248;-85
2023/06/03 01:58:02;;;;;;;12.27;7.40;;;;;;;-145.69;100.00;52173.09;5055157;28;20212;-85
2023/06/03 02:00:29;;;;;;;17.03;8.03;;;;;;;-145.69;100.00;52157.25;5054654;28;20203;-84
2023/06/03 02:02:56;;;;;;;12.83;8.20;;;;;;;-145.69;100.00;52123.56;5054433;28;20205;-85
2023/06/03 02:05:22;;;;;;;15.57;7.83;;;;;;;-145.69;100.00;52175.06;5054270;28;20204;-85
2023/06/03 02:07:49;;;;;;;15.33;7.37;;;;;;;-145.69;100.00;52186.94;5071857;28;20203;-85
2023/06/03 02:10:16;;;;;;;13.50;8.10;;;;;;;-145.69;100.00;52145.34;5073923;28;20606;-84
2023/06/03 02:12:42;;;;;;;13.40;7.60;;;;;;;-145.69;100.00;52139.41;5073984;28;20190;-85
2023/06/03 02:15:10;;;;;;;12.77;7.90;;;;;;;-145.69;100.00;52151.28;5074172;28;20199;-85
2023/06/03 02:17:37;;;;;;;14.60;7.73;;;;;;;-145.69;100.00;52153.28;5073723;28;20226;-85
2023/06/03 02:20:05;;;;;;;14.50;8.10;;;;;;;-145.69;100.00;52181.00;5073982;28;20285;-84
2023/06/03 02:22:31;;;;;;;15.73;8.03;;;;;;;-145.69;100.00;52159.22;5072718;28;20294;-85
2023/06/03 02:24:58;;;;;;;14.53;8.20;;;;;;;-145.69;100.00;52177.03;5074000;28;20202;-84
2023/06/03 02:27:25;;;;;;;15.47;8.07;;;;;;;-145.69;100.00;52163.19;5074497;28;20207;-85
2023/06/03 02:29:52;;;;;;;18.37;8.33;;;;;;;-145.69;100.00;52196.84;5074227;28;20203;-84
2023/06/03 02:32:21;;;;;;;15.73;8.50;;;;;;;-145.69;100.00;52147.34;5074004;28;20203;-85
2023/06/03 02:34:50;;;;;;;14.03;8.23;;;;;;;-145.69;100.00;52163.19;5073874;28;20561;-84
2023/06/03 02:37:16;;;;;;;12.73;7.63;;;;;;;-145.69;100.00;52186.94;5073253;28;20703;-85
2023/06/03 02:39:43;;;;;;;18.93;8.90;;;;;;;-145.69;100.00;52184.97;5073891;28;20237;-85
2023/06/03 02:42:11;;;;;;;17.77;8.20;;;;;;;-145.69;100.00;52147.34;5074234;28;20555;-85
2023/06/03 02:44:37;;;;;;;13.60;8.07;;;;;;;-145.69;100.00;52177.03;5074501;28;20294;-85
2023/06/03 02:47:04;;;;;;;19.17;10.35;;;;;;;-145.69;100.00;52171.09;5072111;28;20925;-85
2023/06/03 02:49:32;;;;;;;16.97;8.60;;;;;;;-145.69;100.00;52151.28;5073625;28;20235;-85
2023/06/03 02:51:59;;;;;;;15.10;7.80;;;;;;;-145.69;100.00;52175.06;5074026;28;20207;-85
2023/06/03 02:54:25;;;;;;;13.87;7.80;;;;;;;-145.69;100.00;52167.13;5074971;28;20236;-85
2023/06/03 02:56:52;;;;;;;15.67;8.13;;;;;;;-145.69;100.00;52177.03;5076982;28;20231;-85
2023/06/03 02:59:18;;;;;;;17.57;8.97;;;;;;;-145.69;100.00;52171.09;5077353;28;20252;-85
2023/06/03 03:01:45;;;;;;;13.87;8.37;;;;;;;-145.69;100.00;52151.28;5077692;28;20723;-85
2023/06/03 03:04:12;;;;;;;19.43;8.20;;;;;;;-145.69;100.00;52151.28;5076947;28;20248;-84
2023/06/03 03:06:40;;;;;;;15.97;8.67;;;;;;;-145.69;100.00;52119.63;5073843;28;20221;-85
2023/06/03 03:09:07;;;;;;;15.67;8.20;;;;;;;-145.69;100.00;52163.19;5057799;28;20195;-85
2023/06/03 03:11:33;;;;;;;18.13;8.70;;;;;;;-145.69;100.00;52159.22;5056783;28;20199;-85
2023/06/03 03:14:01;;;;;;;17.87;8.87;;;;;;;-145.69;100.00;52184.97;5058632;28;20199;-85
2023/06/03 03:16:28;;;;;;;18.53;9.23;;;;;;;-145.69;100.00;52175.06;5052107;28;20223;-85
2023/06/03 03:18:55;;;;;;;14.87;8.80;;;;;;;-145.69;100.00;52173.09;5077102;28;20195;-85
2023/06/03 03:21:21;;;;;;;16.77;9.17;;;;;;;-145.69;100.00;52190.91;5076619;28;20298;-85
2023/06/03 03:23:49;;;;;;;23.50;9.07;;;;;;;-145.69;100.00;52179.03;5077042;28;20207;-84
2023/06/03 03:26:21;;;;;;;19.40;9.47;;;;;;;-145.69;100.00;52206.75;5076470;28;20206;-85
2023/06/03 03:28:47;;;;;;;16.80;9.00;;;;;;;-145.69;100.00;52190.91;5075732;28;20253;-84
2023/06/03 03:31:14;;;;;;;16.17;8.60;;;;;;;-145.69;100.00;52175.06;5076935;28;20205;-84
2023/06/03 03:33:41;;;;;;;15.73;7.70;;;;;;;-145.69;100.00;52151.28;5076768;28;20445;-84
2023/06/03 03:36:22;;;;;;;17.47;8.60;;;;;;;-145.69;100.00;52186.94;5076587;28;20203;-84
2023/06/03 03:38:56;;;;;;;15.20;8.33;;;;;;;-145.69;100.00;52155.25;5077143;28;20199;-84
2023/06/03 03:41:22;;;;;;;14.33;8.07;;;;;;;-145.69;100.00;52165.16;5077112;28;20203;-84
2023/06/03 03:43:50;;;;;;;15.80;8.40;;;;;;;-145.69;100.00;52177.03;5076823;28;20199;-84
2023/06/03 03:46:17;;;;;;;19.23;8.90;;;;;;;-145.69;100.00;52155.25;5076551;28;20237;-84
2023/06/03 03:48:44;;;;;;;16.40;8.97;;;;;;;-145.69;100.00;52198.81;5076695;28;20222;-84
2023/06/03 03:51:13;;;;;;;18.10;9.57;;;;;;;-145.69;100.00;52222.59;5076668;28;20487;-85
2023/06/03 03:53:44;;;;;;;18.73;9.77;;;;;;;-145.69;100.00;52167.13;5076680;28;20662;-83
2023/06/03 03:56:16;;;;;;;21.20;11.43;;;;;;;-145.69;100.00;52165.16;5075976;28;20492;-84
2023/06/03 03:58:44;;;;;;;17.33;9.90;;;;;;;-145.69;100.00;52149.31;5076355;28;20203;-86
2023/06/03 04:01:12;;;;;;;22.07;10.73;;;;;;;-145.69;100.00;52143.38;5076760;28;20222;-83
2023/06/03 04:03:41;;;;;;;18.23;9.40;;;;;;;-145.69;100.00;52179.03;5076164;28;20673;-85
2023/06/03 04:06:08;;;;;;;19.03;10.10;;;;;;;-145.69;100.00;52165.16;5074784;28;20702;-85
2023/06/03 04:08:40;;;;;;;19.43;9.40;;;;;;;-145.69;100.00;52198.81;5075741;28;20202;-85
2023/06/03 04:11:08;;;;;;;16.10;9.20;;;;;;;-145.69;100.00;52186.94;5075856;28;20202;-85
2023/06/03 04:13:40;;;;;;;17.50;9.20;;;;;;;-145.69;100.00;52163.19;5076037;28;20281;-85
2023/06/03 04:16:11;;;;;;;16.47;8.73;;;;;;;-145.69;100.00;52175.06;5076397;28;20609;-84
2023/06/03 04:18:40;;;;;;;18.13;9.83;;;;;;;-145.69;100.00;52173.09;5074308;28;20205;-85
2023/06/03 04:21:07;;;;;;;25.30;10.43;;;;;;;-145.69;100.00;52204.75;5076291;28;20203;-85
2023/06/03 04:23:33;;;;;;;20.87;9.93;;;;;;;-145.69;100.00;52186.94;5076082;28;20654;-84
2023/06/03 04:26:02;;;;;;;18.37;9.10;;;;;;;-145.69;100.00;52153.28;5076131;28;20714;-84
2023/06/03 04:28:28;;;;;;;18.67;9.60;;;;;;;-145.69;100.00;52161.19;5061277;28;20263;-85
2023/06/03 04:30:56;;;;;;;21.97;8.83;;;;;;;-145.69;100.00;52151.28;5057156;28;20199;-84
2023/06/03 04:33:22;;;;;;;14.77;8.13;;;;;;;-145.69;100.00;52169.13;5055652;28;20257;-85
2023/06/03 04:35:49;;;;;;;18.30;9.20;;;;;;;-145.69;100.00;52175.06;5055649;28;20257;-85
2023/06/03 04:38:15;;;;;;;19.37;8.57;;;;;;;-145.69;100.00;52163.19;5055931;28;20226;-84
2023/06/03 04:40:46;;;;;;;19.20;9.13;;;;;;;-145.69;100.00;52153.28;5055667;28;20212;-84
2023/06/03 04:43:14;;;;;;;16.47;8.90;;;;;;;-145.69;100.00;52143.38;5055545;28;20204;-85
2023/06/03 04:45:40;;;;;;;18.13;8.97;;;;;;;-145.69;100.00;52163.19;5055528;28;20234;-84
2023/06/03 04:48:08;;;;;;;16.00;8.57;;;;;;;-145.69;100.00;52171.09;5054570;28;20202;-85
2023/06/03 04:50:35;;;;;;;13.80;8.20;;;;;;;-145.69;100.00;52173.09;5070528;28;20227;-85
2023/06/03 04:53:02;;;;;;;14.27;9.20;;;;;;;-145.69;100.00;52139.41;5072991;28;20206;-85
2023/06/03 04:55:30;;;;;;;17.67;8.83;;;;;;;-145.69;100.00;52194.88;5074239;28;20203;-85
2023/06/03 04:58:00;;;;;;;16.33;9.10;;;;;;;-145.69;100.00;52190.91;5074078;28;20337;-85
2023/06/03 05:00:27;;;;;;;16.00;8.80;;;;;;;-145.69;100.00;52200.81;5073760;28;20722;-85
2023/06/03 05:02:56;;;;;;;19.50;9.50;;;;;;;-145.69;100.00;52143.38;5073729;28;20199;-85
2023/06/03 05:05:25;;;;;;;19.42;9.65;;;;;;;-145.69;100.00;52171.09;5073885;28;20829;-85
2023/06/03 05:07:51;;;;;;;16.10;9.20;;;;;;;-145.69;100.00;52175.06;5074406;28;20259;-84
2023/06/03 05:10:18;;;;;;;21.30;9.50;;;;;;;-145.69;100.00;52139.41;5061999;28;20227;-86
2023/06/03 05:12:46;;;;;;;20.17;9.77;;;;;;;-145.69;100.00;52184.97;5057720;28;20600;-85
2023/06/03 05:15:13;;;;;;;20.17;9.03;;;;;;;-145.69;100.00;52147.34;5073563;28;20207;-85
2023/06/03 05:17:40;;;;;;;16.43;9.30;;;;;;;-145.69;100.00;52161.19;5063673;28;20227;-85
2023/06/03 05:20:08;;;;;;;12.43;7.93;;;;;;;-145.69;100.00;52149.31;5053649;28;20203;-85
2023/06/03 05:22:36;;;;;;;17.27;8.70;;;;;;;-145.69;100.00;52173.09;5052443;28;20206;-85
2023/06/03 05:25:04;;;;;;;18.30;8.27;;;;;;;-145.69;100.00;52167.13;5053523;28;20206;-85
2023/06/03 05:27:30;;;;;;;17.03;8.60;;;;;;;-145.69;100.00;52155.25;5053579;28;20655;-85
2023/06/03 05:29:57;;;;;;;18.57;8.70;;;;;;;-145.69;100.00;52139.41;5053502;28;20222;-85
2023/06/03 05:32:23;;;;;;;15.87;8.43;;;;;;;-145.69;100.00;52159.22;5053804;28;20199;-85
2023/06/03 05:34:50;;;;;;;17.83;8.03;;;;;;;-145.69;100.00;52141.41;5053817;28;20260;-85
2023/06/03 05:37:16;;;;;;;17.33;8.27;;;;;;;-145.69;100.00;52103.78;5053792;28;20223;-85
2023/06/03 05:39:44;;;;;;;14.17;8.07;;;;;;;-145.69;100.00;52181.00;5053646;28;20208;-85
2023/06/03 05:42:10;;;;;;;20.53;7.37;;;;;;;-145.69;100.00;52133.47;5054138;28;20191;-85
2023/06/03 05:44:37;;;;;;;18.83;7.38;;;;;;;-145.69;100.00;52145.34;5053532;28;20199;-86
2023/06/03 05:47:04;;;;;;;12.18;6.63;;;;;;;-145.69;100.00;52139.41;5053325;28;20212;-85
2023/06/03 05:49:30;;;;;;;11.40;6.40;;;;;;;-145.69;100.00;52115.66;5053348;28;20234;-86
2023/06/03 05:51:57;;;;;;;21.05;7.50;;;;;;;-145.69;100.00;52135.47;5056830;28;20245;-86
2023/06/03 05:54:28;;;;;;;11.98;6.07;;;;;;;-145.69;100.00;52107.72;5063554;28;20207;-86
2023/06/03 05:56:56;;;;;;;11.60;6.25;;;;;;;-145.69;100.00;52151.28;5053964;28;20650;-85
2023/06/03 05:59:22;;;;;;;9.63;6.15;;;;;;;-145.69;100.00;52131.50;5053667;28;20203;-85
2023/06/03 06:01:49;;;;;;;10.93;5.57;;;;;;;-145.69;100.00;52147.34;5053487;28;20290;-85
2023/06/03 06:04:15;;;;;;;13.63;5.35;;;;;;;-145.69;100.00;52107.72;5054175;28;20200;-85
2023/06/03 06:06:42;;;;;;;11.50;6.10;;;;;;;-145.69;100.00;52115.66;5053579;28;20207;-85
2023/06/03 06:09:08;;;;;;;15.30;6.15;;;;;;;-145.69;100.00;52115.66;5053722;28;20665;-85
2023/06/03 06:11:35;;;;;;;8.43;5.57;;;;;;;-145.69;100.00;52093.88;5053968;28;20257;-86
2023/06/03 06:14:03;;;;;;;11.68;5.93;;;;;;;-145.69;100.00;52109.72;5056860;28;20203;-85
2023/06/03 06:16:29;;;;;;;10.82;5.65;;;;;;;-145.69;100.00;52123.56;5073659;28;20203;-85
2023/06/03 06:18:57;;;;;;;10.10;5.55;;;;;;;-145.69;100.00;52109.72;5074042;28;20707;-85
2023/06/03 06:21:24;;;;;;;13.43;5.53;;;;;;;-145.69;100.00;52095.84;5054514;28;20203;-85
2023/06/03 06:23:50;;;;;;;11.50;5.70;;;;;;;-145.69;100.00;52129.50;5053334;28;20257;-85
2023/06/03 06:26:17;;;;;;;12.23;5.13;;;;;;;-145.69;100.00;52066.16;5053128;28;20230;-84
2023/06/03 06:28:45;;;;;;;11.07;5.60;;;;;;;-145.69;100.00;52099.81;5072534;28;20609;-84
2023/06/03 06:31:15;;;;;;;9.45;5.60;;;;;;;-145.69;100.00;52099.81;5077583;28;20199;-86
2023/06/03 06:33:47;;;;;;;15.35;5.28;;;;;;;-145.69;100.00;52099.81;5077608;28;20199;-85
2023/06/03 06:36:28;;;;;;;11.85;5.55;;;;;;;-145.69;100.00;52091.88;5038445;28;20204;-85
2023/06/03 06:38:54;;;;;;;16.98;6.15;;;;;;;-145.69;100.00;52083.97;5038008;28;20239;-85
2023/06/03 06:41:22;;;;;;;13.65;5.57;;;;;;;-145.69;100.00;52087.94;5037833;28;20200;-85
2023/06/03 06:43:48;;;;;;;10.98;5.55;;;;;;;-145.69;100.00;52087.94;5038146;28;20203;-84
2023/06/03 06:46:16;;;;;;;13.13;5.93;;;;;;;-145.69;100.00;52080.00;5037940;28;20246;-85
2023/06/03 06:48:42;;;;;;;16.30;6.35;;;;;;;-145.69;100.00;52089.91;5037783;28;20196;-85
2023/06/03 06:51:09;;;;;;;11.98;5.53;;;;;;;-145.69;100.00;52082.00;5037676;28;20257;-85
2023/06/03 06:53:36;;;;;;;14.13;5.70;;;;;;;-145.69;100.00;52066.16;5037283;28;20605;-85
2023/06/03 06:56:04;;;;;;;9.88;5.13;;;;;;;-145.69;100.00;52044.38;5037504;28;20212;-85
2023/06/03 06:58:34;;;;;;;13.05;5.90;;;;;;;-145.69;100.00;52078.03;5037682;28;20227;-84
2023/06/03 07:01:00;;;;;;;11.52;5.53;;;;;;;-145.69;100.00;52093.88;5076987;28;20203;-84
2023/06/03 07:03:28;;;;;;;11.82;5.90;;;;;;;-145.69;98.93;52056.25;5076748;28;20291;-85
2023/06/03 07:05:55;;;;;;;12.63;6.40;;;;;;;-145.69;100.00;52093.88;5075327;28;20289;-85
2023/06/03 07:08:22;;;;;;;12.20;5.78;;;;;;;-145.69;100.00;52076.03;5076340;28;20195;-84
2023/06/03 07:10:48;;;;;;;12.52;5.80;;;;;;;-145.69;100.00;52060.22;5076135;28;20218;-84
2023/06/03 07:13:15;;;;;;;14.23;5.85;;;;;;;-145.69;100.00;52062.19;5076271;28;20309;-84
2023/06/03 07:15:43;;;;;;;11.50;5.85;;;;;;;-145.69;100.00;52052.28;5076046;28;20238;-84
2023/06/03 07:18:10;;;;;;;11.63;5.43;;;;;;;-145.69;96.23;52095.84;5076267;28;20226;-84
2023/06/03 07:20:40;;;;;;;9.00;5.03;;;;;;;-145.69;95.71;52095.84;5059709;28;20622;-84
2023/06/03 07:23:10;;;;;;;11.27;5.32;;;;;;;-145.69;92.78;52060.22;5055783;28;20203;-84
2023/06/03 07:25:40;;;;;;;13.48;5.60;;;;;;;-145.69;94.19;52052.28;5055991;28;20207;-83
2023/06/03 07:28:10;;;;;;;18.35;6.57;;;;;;;-145.69;100.00;52066.16;5055773;28;20211;-84
2023/06/03 07:30:37;;;;;;;12.10;5.60;;;;;;;-145.69;100.00;52032.47;5055561;28;20294;-84
2023/06/03 07:33:06;;;;;;;15.25;5.53;;;;;;;-145.69;88.87;52060.22;5055290;28;20206;-83
2023/06/03 07:35:34;;;;;;;14.02;6.70;;;;;;;-145.69;93.55;52028.53;5055283;28;20653;-82
2023/06/03 07:38:02;;;;;;;16.08;6.03;;;;;;;-145.69;89.94;52048.31;5055486;28;20314;-84
2023/06/03 07:40:39;;;;;;;11.27;5.80;;;;;;;-145.69;87.00;52083.97;5035150;28;20208;-83
2023/06/03 07:43:06;;;;;;;13.70;5.93;;;;;;;-145.69;84.97;52052.28;5037846;28;20203;-84
2023/06/03 07:45:33;;;;;;;11.85;5.85;;;;;;;-145.69;86.94;52074.06;5055317;28;20204;-84
2023/06/03 07:48:01;;;;;;;14.80;6.03;;;;;;;-145.69;80.48;52032.47;5055559;28;20203;-84
2023/06/03 07:50:28;;;;;;;14.50;5.75;;;;;;;-145.69;81.46;52008.72;5054919;28;20250;-83
2023/06/03 07:53:00;;;;;;;12.48;5.25;;;;;;;-145.69;75.41;52072.09;5055480;28;20211;-84
2023/06/03 07:55:34;;;;;;;12.27;5.75;;;;;;;-145.69;79.25;52032.47;5074711;28;20290;-84
2023/06/03 07:58:00;;;;;;;11.27;5.40;;;;;;;-145.69;76.26;52004.75;5074925;28;20227;-85
2023/06/03 08:00:27;;;;;;;14.40;5.22;;;;;;;-145.69;77.46;52044.38;5055294;28;20249;-85
2023/06/03 08:02:53;;;;;;;14.55;5.75;;;;;;;-145.69;76.30;52016.66;5055208;28;20204;-85
2023/06/03 08:05:31;;;;;;;15.98;5.57;;;;;;;-145.69;70.97;52018.63;5055155;28;20269;-84
2023/06/03 08:07:57;;;;;;;13.75;5.22;;;;;;;-145.69;72.85;52000.81;5054716;28;20203;-84
2023/06/03 08:10:25;;;;;;;12.95;5.68;;;;;;;-145.69;72.17;52042.38;5054623;28;20650;-84
2023/06/03 08:12:53;;;;;;;12.43;5.28;;;;;;;-145.69;76.83;51996.84;5054246;28;20681;-84
2023/06/03 08:15:27;;;;;;;12.73;5.82;;;;;;;-145.69;73.68;52036.44;5053870;28;20195;-82
2023/06/03 08:17:54;;;;;;;12.93;5.03;;;;;;;-145.69;70.95;52032.47;5054068;28;20223;-84
2023/06/03 08:20:27;;;;;;;12.57;5.57;;;;;;;-145.69;67.55;52040.41;5051444;28;20211;-81
2023/06/03 08:22:55;;;;;;;12.00;5.25;;;;;;;-145.69;68.87;52024.56;5054718;28;20286;-82
2023/06/03 08:25:22;;;;;;;12.35;4.65;;;;;;;-145.69;66.85;52024.56;5056540;28;20605;-81
2023/06/03 08:27:49;;;;;;;10.65;4.88;;;;;;;-145.69;69.14;52004.75;5074821;28;20194;-80
2023/06/03 08:30:18;;;;;;;12.00;5.10;;;;;;;-145.69;70.31;51975.06;5073930;28;20198;-84
2023/06/03 08:32:45;;;;;;;15.57;5.78;;;;;;;-145.69;71.78;51996.84;5057387;28;20323;-81
2023/06/03 08:35:13;;;;;;;15.27;5.47;;;;;;;-145.69;71.64;52008.72;5054365;28;20203;-85
2023/06/03 08:37:40;;;;;;;13.68;4.90;;;;;;;-145.69;76.50;52018.63;5054216;28;20199;-83
2023/06/03 08:40:09;;;;;;;13.25;4.72;;;;;;;-145.69;73.79;52054.25;5053972;28;20245;-82
2023/06/03 08:42:42;;;;;;;18.55;5.45;;;;;;;-145.69;73.62;52030.50;5053872;28;20582;-82
2023/06/03 08:45:10;;;;;;;16.38;5.10;;;;;;;-145.69;74.29;51996.84;5054707;28;20210;-83
2023/06/03 08:47:48;;;;;;;15.75;4.72;;;;;;;-145.69;74.30;52036.44;5074669;28;20202;-82
2023/06/03 08:50:17;;;;;;;11.27;5.18;;;;;;;-145.69;68.58;52012.69;5074080;28;20272;-83
2023/06/03 08:52:46;;;;;;;11.85;4.72;;;;;;;-145.69;73.13;52002.78;5072967;28;20198;-85
2023/06/03 08:55:15;;;;;;;16.10;5.40;;;;;;;-145.69;76.18;52006.75;5072948;28;20199;-80
2023/06/03 08:57:49;;;;;;;12.73;5.00;;;;;;;-145.69;76.28;51965.16;5073991;28;20213;-82
2023/06/03 09:00:21;;;;;;;12.32;5.30;;;;;;;-145.69;71.22;51996.84;5073780;28;20203;-82
2023/06/03 09:02:50;;;;;;;14.85;4.50;;;;;;;-145.69;71.16;52006.75;5073627;28;20203;-83
2023/06/03 09:05:20;;;;;;;9.18;4.60;;;;;;;-145.69;73.69;52008.72;5069030;28;20204;-83
2023/06/03 09:07:48;;;;;;;13.73;5.15;;;;;;;-145.69;75.35;52012.69;5053426;28;20203;-82
2023/06/03 09:10:16;;;;;;;14.13;5.18;;;;;;;-145.69;75.53;52000.81;5053280;28;20206;-81
2023/06/03 09:12:47;;;;;;;10.52;5.07;;;;;;;-145.69;74.71;52022.59;5053363;28;20204;-81
2023/06/03 09:15:14;;;;;;;11.00;5.38;;;;;;;-145.69;73.78;52016.66;5053525;28;20230;-82
2023/06/03 09:17:42;;;;;;;12.45;5.05;;;;;;;-145.69;75.85;52014.66;5038910;28;20198;-81
2023/06/03 09:20:19;;;;;;;10.27;5.18;;;;;;;-145.69;73.92;52012.69;5053270;28;20219;-78
2023/06/03 09:22:48;;;;;;;11.00;4.90;;;;;;;-145.69;73.46;51988.91;5052926;28;20195;-80
2023/06/03 09:25:17;;;;;;;14.68;5.45;;;;;;;-145.69;67.06;51988.91;5053756;28;20227;-83
2023/06/03 09:27:45;;;;;;;13.80;4.85;;;;;;;-145.69;67.65;51992.88;5049242;28;20199;-83
2023/06/03 09:30:14;;;;;;;10.38;4.88;;;;;;;-145.69;67.42;52018.63;5053978;28;20199;-85
2023/06/03 09:32:42;;;;;;;17.55;4.72;;;;;;;-145.69;68.27;51984.97;5054245;28;20249;-84
2023/06/03 09:35:10;;;;;;;13.52;4.72;;;;;;;-145.69;65.55;51981.00;5053644;28;20192;-83
2023/06/03 09:37:37;;;;;;;13.52;4.97;;;;;;;-145.69;62.09;51992.88;5054669;28;20249;-84
2023/06/03 09:40:05;;;;;;;14.63;5.35;;;;;;;-145.69;61.98;51990.91;5053131;28;20233;-82
2023/06/03 09:42:42;;;;;;;12.07;5.07;;;;;;;-145.69;64.11;52016.66;5053821;28;20290;-87
2023/06/03 09:45:27;;;;;;;13.05;4.63;;;;;;;-145.69;67.15;51957.25;5051763;28;20531;-83
2023/06/03 09:47:58;;;;;;;15.18;5.03;;;;;;;-145.69;65.49;51981.00;5054189;28;20202;-85
2023/06/03 09:50:31;;;;;;;15.48;5.05;;;;;;;-145.69;64.82;52002.78;5054690;28;20289;-83
2023/06/03 09:52:58;;;;;;;11.68;5.25;;;;;;;-145.69;64.38;51973.06;5059879;28;20224;-86
2023/06/03 09:55:32;;;;;;;13.98;4.85;;;;;;;-145.69;67.74;51982.97;5070369;28;20351;-82
2023/06/03 09:58:03;;;;;;;10.25;5.57;;;;;;;-145.69;58.63;52008.72;5074043;28;20297;-86
2023/06/03 10:00:32;;;;;;;11.40;4.68;;;;;;;-145.69;63.94;51981.00;5073533;28;20202;-86
2023/06/03 10:03:07;;;;;;;14.73;5.00;;;;;;;-145.69;63.48;52044.38;5069964;28;20227;-83
2023/06/03 10:05:36;;;;;;;11.18;4.90;;;;;;;-145.69;63.61;51981.00;5059205;28;20195;-80
2023/06/03 10:08:04;;;;;;;10.70;4.80;;;;;;;-145.69;67.47;51973.06;5058091;28;20199;-83
2023/06/03 10:10:55;;;;;;;11.57;5.10;;;;;;;-145.69;60.44;51957.25;5059011;28;20258;-86
2023/06/03 10:13:25;;;;;;;14.38;4.85;;;;;;;-145.69;63.44;51992.88;5065627;28;20201;-87
2023/06/03 10:15:53;;;;;;;8.00;4.47;;;;;;;-145.69;63.74;51979.03;5079860;28;20199;-85
2023/06/03 10:18:35;;;;;;;11.90;5.18;;;;;;;-145.69;65.74;51981.00;5080378;28;20203;-84
2023/06/03 10:21:15;;;;;;;10.30;4.70;;;;;;;-145.69;59.94;51965.16;5078033;28;20293;-86
2023/06/03 10:23:43;;;;;;;10.82;4.68;;;;;;;-145.69;59.28;51982.97;5070252;28;20202;-86
2023/06/03 10:26:11;;;;;;;12.98;5.18;;;;;;;-145.69;56.85;51981.00;5057759;28;20646;-85
2023/06/03 10:28:39;;;;;;;11.32;4.70;;;;;;;-145.69;56.85;51947.34;5058119;28;20204;-85
2023/06/03 10:31:07;;;;;;;14.23;4.80;;;;;;;-145.69;54.71;51955.25;5057775;28;20230;-82
2023/06/03 10:33:34;;;;;;;13.55;5.05;;;;;;;-145.69;54.66;51977.03;5066523;28;20195;-84
2023/06/03 10:36:03;;;;;;;10.52;4.80;;;;;;;-145.69;52.06;51955.25;5078249;28;20205;-86
2023/06/03 10:38:34;;;;;;;10.90;4.75;;;;;;;-145.69;53.61;51957.25;5077179;28;20203;-84
2023/06/03 10:41:01;;;;;;;14.90;4.82;;;;;;;-145.69;51.68;51947.34;5076062;28;20214;-80
2023/06/03 10:43:31;;;;;;;12.57;4.85;;;;;;;-145.69;49.11;51925.56;5070485;28;20257;-85
2023/06/03 10:45:59;;;;;;;9.02;4.88;;;;;;;-145.69;48.07;51921.59;5057654;28;20235;-83
2023/06/03 10:48:27;;;;;;;10.98;4.75;;;;;;;-145.69;51.70;51921.59;5056692;28;20210;-83
2023/06/03 10:51:03;;;;;;;12.70;4.63;;;;;;;-145.69;50.72;51917.63;5057092;28;20250;-83
2023/06/03 10:53:45;;;;;;;16.15;5.05;;;;;;;-145.69;52.75;51925.56;5056977;28;20206;-83
2023/06/03 10:56:26;;;;;;;15.35;4.70;;;;;;;-145.69;58.81;51917.63;5055950;28;20295;-81
2023/06/03 10:59:02;;;;;;;10.95;4.57;;;;;;;-145.69;50.11;51957.25;5057057;28;20227;-87
2023/06/03 11:01:55;;;;;;;10.90;4.55;;;;;;;-145.69;51.30;51901.78;5056864;28;20229;-81
2023/06/03 11:04:22;;;;;;;10.95;5.00;;;;;;;-145.69;52.61;51923.56;5070277;28;20248;-84
2023/06/03 11:06:49;;;;;;;11.20;4.50;;;;;;;-145.69;51.87;51945.34;5076675;28;20202;-83
2023/06/03 11:09:30;;;;;;;9.25;4.65;;;;;;;-145.69;51.91;51981.00;5077737;28;20206;-84
2023/06/03 11:12:06;;;;;;;17.98;4.63;;;;;;;-145.69;52.18;51913.69;5076833;28;20261;-84